หน้าหลัก
METAR-TAF:

METAR-TAF

ท่าอากาศยาน :

Östersund-Frösön, สวีเดน

ละติจูด: 63-11N, ลองจิจูด: 014-30E, ความสูง: 376 ม.

การสังเกตสภาพอากาศปัจจุบัน

รายงานได้ทำขึ้นเมื่อ 43 นาทีที่แล้ว ณ เวลา 12:20 UTC
ลม 12 นอตจากตะวันตก
อุณหภูมิ 3°C
ความชื้น 52%
ความกดอากาศ 1002 hPa
ทัศนวิสัย 10 กม. หรือมากกว่า
ไม่มีเมฆต่ำกว่า 1,500 ม. และไม่มีเมฆคิวมูโลนิมบัส

METAR: ESNZ 151220Z 27012KT CAVOK 03/M06 Q1002

เวลา: 15:03 (13:03 UTC)

การพยากรณ์

รายงานได้ทำขึ้นเมื่อ 1 ชั่วโมงและ 33 นาทีที่แล้ว ณ เวลา 11:30 UTC
การพยากรณ์มีผลตั้งแต่วันที่ 15 ณ เวลา 12 UTC จนถึงวันที่ 15 ณ เวลา 19 UTC
ลม 9 นอตจากตะวันตก/ตะวันตกเฉียงเหนือ
ทัศนวิสัย 10 กม. หรือมากกว่า
ไม่มีเมฆต่ำกว่า 1,500 ม. และไม่มีเมฆคิวมูโลนิมบัส
ความน่าจะเป็น 40%
ตั้งแต่วันที่ 15 ณ เวลา 16 UTC จนถึงวันที่ 15 ณ เวลา 19 UTC
มีเมฆเป็นส่วนมากเว้นเป็นระยะที่ความสูง 1400 ฟุต

TAF: ESNZ 151130Z 1512/1519 30009KT CAVOK PROB40 1516/1519 BKN014

สังเกตการณ์สภาพอากาศและพยากรณ์อากาศของสนามบินมากกว่า 4000 แห่ง (รายงาน METAR และ TAF).

สถานีที่ดูได้จะแสดงไว้ด้วยจุดสีเหลืองและสีแดงบนแผนที่.

เลื่อนเมาส์ไปเหนือจุดเพื่อดูชื่อสถานี.

แล้วคลิกเพื่อดูสังเกตการณ์และการพยากรณ์สภาพอากาศ.

ในการเปลี่ยนแผนที่: คลิกที่ปุ่มสีเขียวที่มีกากบาทสีดำเพื่อซูมเข้า; ที่ปุ่มสีเขียวที่มีขีดเพื่อซูมออก; หรือที่ลูกศรสีเขียวเพื่อไปยังแผนที่ที่อยู่ติดกัน.


METAR-TAF: